Time;durP1;ratioP1;P1;durP2;ratioP2;P2;SDS_P1;SDS_P2;PMS_P1;PMS_P2;Temp;Humidity;BMP_temperature;BMP_pressure;BME280_temperature;BME280_humidity;BME280_pressure;Samples;Min_cycle;Max_cycle;Signal;HPM_P1;HPM_P2
2021/10/13 00:01:57;;;;;;;30.25;18.73;;;;;;;10.60;75.89;99621.39;1744654;82;21065;-72
2021/10/13 00:04:23;;;;;;;32.58;19.73;;;;;;;10.69;76.72;99621.81;1747600;81;21093;-73
2021/10/13 00:06:50;;;;;;;31.73;18.85;;;;;;;10.79;74.95;99637.20;1747759;82;21096;-73
2021/10/13 00:09:18;;;;;;;37.55;20.55;;;;;;;10.77;75.57;99641.71;1747446;82;21582;-74
2021/10/13 00:11:44;;;;;;;35.78;19.80;;;;;;;10.74;73.27;99651.05;1747542;82;21013;-72
2021/10/13 00:14:13;;;;;;;34.98;20.37;;;;;;;10.59;74.06;99649.50;1747667;82;21026;-73
2021/10/13 00:16:40;;;;;;;31.02;18.02;;;;;;;10.52;73.61;99650.70;1717564;82;21138;-73
2021/10/13 00:19:07;;;;;;;36.30;21.48;;;;;;;10.36;73.62;99636.52;1717801;83;21033;-73
2021/10/13 00:21:33;;;;;;;32.35;19.02;;;;;;;10.29;74.90;99642.50;1717947;83;21342;-74
2021/10/13 00:23:59;;;;;;;33.85;19.90;;;;;;;10.22;76.26;99637.93;1719007;83;21048;-75
2021/10/13 00:26:26;;;;;;;37.33;18.27;;;;;;;10.22;75.25;99636.61;1718475;83;21654;-74
2021/10/13 00:28:52;;;;;;;28.42;17.17;;;;;;;10.15;74.91;99636.95;1718910;83;21480;-74
2021/10/13 00:31:18;;;;;;;32.73;17.85;;;;;;;10.09;77.22;99631.48;1721632;82;21105;-77
2021/10/13 00:33:45;;;;;;;33.67;19.75;;;;;;;10.17;78.10;99633.34;1748187;82;21041;-74
2021/10/13 00:36:11;;;;;;;35.95;21.10;;;;;;;10.29;78.39;99632.83;1747822;81;21621;-74
2021/10/13 00:38:38;;;;;;;37.03;20.48;;;;;;;10.31;76.11;99634.08;1747489;82;21442;-75
2021/10/13 00:41:04;;;;;;;33.90;20.12;;;;;;;10.26;77.29;99628.98;1747749;81;21126;-73
2021/10/13 00:43:31;;;;;;;29.45;17.73;;;;;;;10.24;77.57;99623.41;1747378;82;21029;-74
2021/10/13 00:45:58;;;;;;;34.15;19.27;;;;;;;10.26;77.50;99618.46;1748168;81;21049;-73
2021/10/13 00:48:24;;;;;;;35.58;20.32;;;;;;;10.32;77.63;99617.36;1748235;82;21495;-73
2021/10/13 00:50:51;;;;;;;32.98;18.92;;;;;;;10.31;75.08;99626.63;1748392;82;21046;-73
2021/10/13 00:53:17;;;;;;;29.32;16.52;;;;;;;10.17;75.09;99630.70;1748364;82;21540;-73
2021/10/13 00:55:44;;;;;;;43.33;20.80;;;;;;;10.16;78.27;99637.34;1748328;82;21623;-73
2021/10/13 00:58:10;;;;;;;36.03;20.30;;;;;;;10.25;78.39;99635.16;1747886;82;22179;-74
2021/10/13 01:00:41;;;;;;;42.25;21.57;;;;;;;10.26;76.86;99646.09;1720082;82;21018;-73
2021/10/13 01:03:22;;;;;;;37.48;21.80;;;;;;;10.20;75.09;99642.40;1747922;82;21022;-73
2021/10/13 01:06:09;;;;;;;34.27;19.80;;;;;;;10.05;74.01;99646.56;1747967;81;21547;-73
2021/10/13 01:08:59;;;;;;;35.88;20.57;;;;;;;9.98;75.87;99645.08;1747321;82;21039;-76
2021/10/13 01:11:34;;;;;;;36.23;20.90;;;;;;;10.09;79.08;99647.27;1747489;82;21065;-75
2021/10/13 01:14:19;;;;;;;32.80;19.05;;;;;;;10.26;78.56;99651.80;1747818;82;21540;-76
2021/10/13 01:17:01;;;;;;;34.05;19.27;;;;;;;10.35;78.42;99660.64;1748108;81;21037;-76
2021/10/13 01:19:44;;;;;;;36.83;20.60;;;;;;;10.42;77.73;99649.38;1747907;81;21088;-77
2021/10/13 01:22:16;;;;;;;41.83;21.20;;;;;;;10.34;74.65;99640.98;1747994;82;21133;-76
2021/10/13 01:25:04;;;;;;;51.23;23.40;;;;;;;9.96;73.18;99635.55;1747871;81;21122;-73
2021/10/13 01:28:00;;;;;;;42.98;24.45;;;;;;;9.56;73.74;99639.84;1747731;81;21154;-73
2021/10/13 01:30:39;;;;;;;50.58;25.00;;;;;;;9.21;73.78;99643.42;1747883;81;21595;-73
2021/10/13 01:33:26;;;;;;;46.13;23.15;;;;;;;8.97;74.86;99631.64;1734839;82;21123;-74
2021/10/13 01:35:57;;;;;;;38.70;20.32;;;;;;;8.87;76.43;99632.89;1747794;82;21041;-73
2021/10/13 01:38:26;;;;;;;38.30;20.55;;;;;;;8.91;77.67;99630.55;1747577;82;22073;-74
2021/10/13 01:40:54;;;;;;;43.52;18.32;;;;;;;8.96;78.50;99633.01;1748451;81;21052;-73
2021/10/13 01:43:21;;;;;;;37.63;19.60;;;;;;;9.12;79.37;99637.22;1748366;81;21046;-76
2021/10/13 01:45:50;;;;;;;36.93;19.80;;;;;;;9.24;78.21;99631.47;1747926;81;21886;-74
2021/10/13 01:48:18;;;;;;;43.13;21.30;;;;;;;9.12;76.37;99635.91;1747531;82;21072;-75
2021/10/13 01:50:46;;;;;;;37.58;21.52;;;;;;;8.95;75.51;99637.84;1747889;81;21077;-74
2021/10/13 01:53:15;;;;;;;39.83;21.85;;;;;;;8.82;76.69;99636.16;1748056;82;21094;-77
2021/10/13 01:55:43;;;;;;;;;;;;;;;8.82;77.33;99638.78;1750599;81;21493;-77
2021/10/13 01:58:10;;;;;;;39.23;21.37;;;;;;;8.82;77.66;99638.31;1748256;82;21810;-79
2021/10/13 02:00:36;;;;;;;37.80;21.95;;;;;;;8.78;77.92;99644.59;1748064;82;21131;-74
2021/10/13 02:03:05;;;;;;;33.42;20.23;;;;;;;8.72;77.75;99642.64;1747834;81;21029;-74
2021/10/13 02:05:34;;;;;;;35.25;20.32;;;;;;;8.72;79.57;99649.21;1731713;82;21080;-73
2021/10/13 02:08:02;;;;;;;35.43;21.12;;;;;;;8.72;78.88;99645.27;1700976;82;21033;-75
2021/10/13 02:10:29;;;;;;;31.23;19.42;;;;;;;8.55;77.92;99641.50;1747921;82;21280;-75
2021/10/13 02:12:56;;;;;;;32.53;20.25;;;;;;;8.44;78.58;99651.99;1747774;82;20991;-74
2021/10/13 02:15:22;;;;;;;40.88;21.77;;;;;;;8.26;77.36;99653.46;1748122;82;21567;-75
2021/10/13 02:17:51;;;;;;;40.45;22.10;;;;;;;8.13;76.96;99660.45;1747779;82;21038;-74
2021/10/13 02:20:20;;;;;;;41.68;21.20;;;;;;;8.06;78.96;99663.35;1747736;82;21543;-73
2021/10/13 02:22:50;;;;;;;32.42;18.90;;;;;;;8.14;80.42;99671.37;1720335;82;21509;-72
2021/10/13 02:25:17;;;;;;;35.73;19.73;;;;;;;8.29;82.06;99671.73;1748481;82;21057;-73
2021/10/13 02:28:05;;;;;;;30.32;19.60;;;;;;;8.53;83.73;99670.88;1747895;82;22231;-73
2021/10/13 02:30:31;;;;;;;40.80;20.48;;;;;;;8.73;82.58;99665.37;1748151;82;21061;-73
2021/10/13 02:32:59;;;;;;;35.40;20.23;;;;;;;8.74;79.36;99669.27;1747996;82;21045;-74
2021/10/13 02:35:25;;;;;;;35.50;21.15;;;;;;;8.64;78.76;99661.78;1747591;82;21127;-74
2021/10/13 02:37:52;;;;;;;40.80;21.68;;;;;;;8.58;79.81;99666.34;1747512;82;21077;-73
2021/10/13 02:40:18;;;;;;;38.53;21.62;;;;;;;8.53;78.26;99660.38;1747595;82;21025;-73
2021/10/13 02:42:45;;;;;;;35.40;19.85;;;;;;;8.40;77.53;99659.14;1747622;82;21027;-73
2021/10/13 02:45:11;;;;;;;36.93;20.92;;;;;;;8.39;79.91;99653.44;1747844;82;21029;-73
2021/10/13 02:47:47;;;;;;;35.03;18.80;;;;;;;8.49;80.73;99665.80;1747472;82;21298;-74
2021/10/13 02:50:31;;;;;;;32.10;16.82;;;;;;;8.59;81.30;99668.05;1747842;82;21065;-73
2021/10/13 02:53:26;;;;;;;44.98;20.17;;;;;;;8.61;80.42;99676.72;1748056;82;21010;-75
2021/10/13 02:56:04;;;;;;;32.08;18.25;;;;;;;8.58;81.68;99658.47;1747734;82;21074;-75
2021/10/13 02:58:41;;;;;;;28.60;17.82;;;;;;;8.58;83.21;99657.16;1747392;82;21044;-77
2021/10/13 03:01:15;;;;;;;36.38;20.12;;;;;;;8.51;83.44;99662.23;1747918;82;21143;-77
2021/10/13 03:04:00;;;;;;;34.15;20.57;;;;;;;8.56;84.63;99661.61;1748474;82;21032;-75
2021/10/13 03:06:37;;;;;;;36.45;21.33;;;;;;;8.58;84.42;99667.66;1748190;82;21035;-77
2021/10/13 03:09:05;;;;;;;39.63;22.10;;;;;;;8.63;84.14;99674.48;1748481;81;21504;-75
2021/10/13 03:11:31;;;;;;;40.98;21.82;;;;;;;8.67;84.56;99674.78;1748116;82;21072;-75
2021/10/13 03:13:58;;;;;;;38.17;21.35;;;;;;;8.69;85.21;99675.58;1748076;82;21162;-76
2021/10/13 03:16:25;;;;;;;38.85;22.22;;;;;;;8.69;83.15;99674.27;1720200;82;21021;-74
2021/10/13 03:18:51;;;;;;;43.02;21.75;;;;;;;8.60;83.01;99682.91;1748265;82;21121;-75
2021/10/13 03:21:18;;;;;;;31.73;21.35;;;;;;;8.58;82.99;99689.97;1748059;82;21567;-74
2021/10/13 03:23:44;;;;;;;37.15;21.42;;;;;;;8.54;82.46;99696.23;1748162;82;21109;-74
2021/10/13 03:26:13;;;;;;;39.40;21.90;;;;;;;8.41;84.56;99689.70;1747736;82;21583;-76
2021/10/13 03:28:41;;;;;;;34.80;19.55;;;;;;;8.30;83.30;99686.55;1748091;81;21163;-72
2021/10/13 03:31:08;;;;;;;34.73;21.12;;;;;;;8.26;83.45;99681.01;1747618;82;21061;-74
2021/10/13 03:33:36;;;;;;;40.40;23.32;;;;;;;8.34;84.26;99673.73;1747845;82;21512;-71
2021/10/13 03:36:05;;;;;;;44.08;22.95;;;;;;;8.40;83.62;99676.19;1747945;82;21052;-74
2021/10/13 03:38:32;;;;;;;52.75;24.27;;;;;;;8.38;82.55;99680.59;1747941;81;21088;-71
2021/10/13 03:40:58;;;;;;;44.18;22.82;;;;;;;8.22;81.32;99678.96;1747796;82;21025;-73
2021/10/13 03:43:25;;;;;;;44.40;25.90;;;;;;;8.03;81.73;99681.36;1747675;82;21061;-72
2021/10/13 03:45:51;;;;;;;40.40;24.32;;;;;;;7.93;81.61;99682.56;1747704;82;21046;-74
2021/10/13 03:48:18;;;;;;;40.10;22.95;;;;;;;7.84;81.94;99690.73;1714176;81;21530;-74
2021/10/13 03:50:44;;;;;;;44.93;24.65;;;;;;;7.87;82.26;99690.66;1716194;82;21519;-73
2021/10/13 03:53:11;;;;;;;39.27;23.27;;;;;;;7.92;82.26;99692.66;1669005;85;21064;-74
2021/10/13 03:55:38;;;;;;;53.23;24.43;;;;;;;7.90;82.14;99686.61;1665503;86;22262;-75
2021/10/13 03:58:04;;;;;;;47.83;22.40;;;;;;;7.88;81.24;99683.17;1665986;85;21085;-75
2021/10/13 04:00:31;;;;;;;44.23;21.70;;;;;;;7.76;80.30;99691.84;1669866;84;21080;-74
2021/10/13 04:03:00;;;;;;;43.52;22.45;;;;;;;7.59;79.93;99694.13;1673020;84;21937;-73
2021/10/13 04:05:26;;;;;;;39.98;22.65;;;;;;;7.38;80.41;99689.58;1679387;84;21124;-73
2021/10/13 04:07:53;;;;;;;46.90;23.87;;;;;;;7.29;81.60;99691.59;1693249;84;21057;-74
2021/10/13 04:10:19;;;;;;;42.00;24.40;;;;;;;7.30;81.92;99693.75;1693804;84;21140;-75
2021/10/13 04:12:50;;;;;;;42.90;23.32;;;;;;;7.24;82.21;99693.47;1693732;84;21376;-75
2021/10/13 04:15:17;;;;;;;42.55;23.47;;;;;;;7.15;82.46;99688.51;1693300;84;21128;-74
2021/10/13 04:17:44;;;;;;;48.13;23.02;;;;;;;7.11;82.94;99689.53;1693462;84;21533;-76
2021/10/13 04:20:12;;;;;;;48.45;24.67;;;;;;;7.07;83.13;99693.13;1694316;84;21696;-74
2021/10/13 04:22:38;;;;;;;55.55;26.35;;;;;;;7.01;83.35;99690.69;1693618;84;21109;-75
2021/10/13 04:25:07;;;;;;;58.78;28.62;;;;;;;6.98;83.73;99689.48;1692593;84;21204;-75
2021/10/13 04:27:34;;;;;;;51.40;26.15;;;;;;;6.93;84.65;99691.77;1693714;84;21094;-74
2021/10/13 04:30:03;;;;;;;52.85;25.92;;;;;;;6.90;85.30;99698.41;1692606;84;21073;-74
2021/10/13 04:32:29;;;;;;;43.58;24.72;;;;;;;6.96;86.38;99703.06;1693358;84;21041;-74
2021/10/13 04:34:56;;;;;;;48.55;25.90;;;;;;;7.09;87.11;99702.66;1693503;84;21161;-76
2021/10/13 04:37:22;;;;;;;50.00;25.82;;;;;;;7.20;86.77;99697.11;1676511;84;21386;-73
2021/10/13 04:39:48;;;;;;;43.33;24.82;;;;;;;7.31;87.48;99693.69;1680583;84;21275;-75
2021/10/13 04:42:15;;;;;;;44.40;23.65;;;;;;;7.43;88.27;99700.77;1679280;84;21121;-74
2021/10/13 04:44:42;;;;;;;46.13;24.50;;;;;;;7.69;91.07;99708.67;1678815;84;21062;-75
2021/10/13 04:47:08;;;;;;;43.20;23.83;;;;;;;7.91;90.40;99701.42;1674982;83;21093;-75
2021/10/13 04:49:34;;;;;;;46.95;25.62;;;;;;;8.03;91.01;99710.21;1676268;85;21117;-75
2021/10/13 04:52:01;;;;;;;43.58;25.75;;;;;;;8.27;90.62;99714.22;1674794;85;21151;-75
2021/10/13 04:54:28;;;;;;;40.20;23.60;;;;;;;8.38;88.71;99713.40;1682191;85;21110;-72
2021/10/13 04:56:55;;;;;;;40.38;23.77;;;;;;;8.35;88.05;99714.36;1685095;83;21093;-73
2021/10/13 04:59:21;;;;;;;40.80;23.45;;;;;;;8.45;89.91;99711.45;1732744;82;21050;-74
2021/10/13 05:01:48;;;;;;;42.73;24.35;;;;;;;8.57;89.78;99709.23;1710421;82;21021;-74
2021/10/13 05:04:14;;;;;;;52.80;24.92;;;;;;;8.67;88.33;99706.28;1728364;82;21207;-72
2021/10/13 05:06:43;;;;;;;45.67;25.25;;;;;;;8.61;87.13;99710.84;1720676;81;21070;-76
2021/10/13 05:09:10;;;;;;;43.30;24.67;;;;;;;8.51;87.53;99710.79;1727014;81;21059;-79
2021/10/13 05:11:36;;;;;;;36.68;23.07;;;;;;;8.58;88.58;99708.34;1669608;84;21082;-78
2021/10/13 05:14:02;;;;;;;39.70;23.07;;;;;;;8.73;89.52;99713.95;1711222;82;21559;-74
2021/10/13 05:16:30;;;;;;;42.55;23.60;;;;;;;8.88;88.94;99719.97;1704365;84;21140;-74
2021/10/13 05:18:56;;;;;;;43.08;24.60;;;;;;;9.05;90.15;99725.05;1717746;82;22024;-74
2021/10/13 05:21:22;;;;;;;38.83;24.37;;;;;;;9.26;88.89;99726.86;1700551;82;21031;-74
2021/10/13 05:23:48;;;;;;;45.17;24.85;;;;;;;9.32;86.31;99727.95;1713975;82;21092;-74
2021/10/13 05:26:15;;;;;;;40.88;25.25;;;;;;;9.36;86.92;99722.98;1706482;82;21085;-73
2021/10/13 05:28:41;;;;;;;43.33;24.70;;;;;;;9.47;87.13;99725.64;1725163;82;21147;-74
2021/10/13 05:31:07;;;;;;;49.08;26.02;;;;;;;9.58;87.62;99727.39;1709334;81;21014;-74
2021/10/13 05:33:34;;;;;;;43.23;26.07;;;;;;;9.71;85.32;99733.88;1717773;82;21118;-74
2021/10/13 05:36:01;;;;;;;45.50;24.72;;;;;;;9.62;82.24;99735.09;1722827;82;21061;-75
2021/10/13 05:38:27;;;;;;;47.03;26.85;;;;;;;9.42;81.33;99738.49;1710741;82;21081;-75
2021/10/13 05:40:54;;;;;;;41.77;24.80;;;;;;;9.25;81.26;99743.55;1702520;82;21095;-75
2021/10/13 05:43:21;;;;;;;40.25;24.70;;;;;;;9.08;81.46;99740.69;1704103;82;21345;-75
2021/10/13 05:45:48;;;;;;;38.70;25.68;;;;;;;8.94;82.01;99755.17;1706791;82;21022;-74
2021/10/13 05:48:15;;;;;;;45.90;26.42;;;;;;;8.81;82.21;99761.77;1735704;82;21064;-74
2021/10/13 05:50:42;;;;;;;47.10;26.15;;;;;;;8.69;82.88;99759.13;1720506;81;21116;-75
2021/10/13 05:53:08;;;;;;;44.35;25.50;;;;;;;8.54;83.49;99764.94;1717928;82;22401;-75
2021/10/13 05:55:35;;;;;;;42.40;26.20;;;;;;;8.44;84.17;99765.67;1714793;82;21497;-75
2021/10/13 05:58:03;;;;;;;41.53;23.22;;;;;;;8.47;87.65;99757.72;1718068;82;21074;-76
2021/10/13 06:00:30;;;;;;;43.70;25.10;;;;;;;8.60;89.11;99751.15;1704758;82;21034;-76
2021/10/13 06:02:58;;;;;;;54.35;25.35;;;;;;;8.86;90.92;99751.98;1712830;82;21025;-73
2021/10/13 06:05:26;;;;;;;42.83;24.02;;;;;;;9.15;90.49;99763.19;1732825;82;21141;-76
2021/10/13 06:07:54;;;;;;;41.60;22.45;;;;;;;9.40;90.13;99755.23;1732353;82;21082;-76
2021/10/13 06:10:21;;;;;;;46.02;24.90;;;;;;;9.66;88.92;99751.16;1657804;85;21125;-77
2021/10/13 06:12:48;;;;;;;43.55;25.05;;;;;;;9.90;88.74;99755.04;1684807;84;21038;-76
2021/10/13 06:15:14;;;;;;;46.68;27.32;;;;;;;10.07;86.44;99754.34;1677107;84;21081;-76
2021/10/13 06:17:41;;;;;;;47.40;27.40;;;;;;;10.16;85.37;99749.17;1679176;84;21165;-75
2021/10/13 06:20:09;;;;;;;46.65;27.62;;;;;;;10.13;83.03;99746.20;1676026;84;21125;-75
2021/10/13 06:22:37;;;;;;;41.13;25.65;;;;;;;10.06;84.50;99742.13;1678504;84;21089;-76
2021/10/13 06:25:06;;;;;;;42.13;22.70;;;;;;;10.21;84.70;99745.88;1689223;84;21120;-75
2021/10/13 06:27:33;;;;;;;40.40;23.42;;;;;;;10.32;84.09;99753.37;1685016;84;21148;-76
2021/10/13 06:30:00;;;;;;;44.50;24.27;;;;;;;10.48;84.01;99761.02;1670381;85;22035;-76
2021/10/13 06:32:26;;;;;;;37.63;23.12;;;;;;;10.59;82.16;99750.03;1667649;84;21121;-76
2021/10/13 06:34:52;;;;;;;45.25;23.98;;;;;;;10.56;81.40;99755.41;1674757;84;21089;-74
2021/10/13 06:37:19;;;;;;;41.85;25.80;;;;;;;10.60;81.56;99750.41;1678358;84;21073;-75
2021/10/13 06:39:46;;;;;;;40.52;23.98;;;;;;;10.63;80.56;99753.78;1680200;84;21584;-75
2021/10/13 06:42:13;;;;;;;45.65;26.50;;;;;;;10.62;80.39;99762.59;1678594;84;21113;-74
2021/10/13 06:44:39;;;;;;;46.28;26.45;;;;;;;10.69;81.00;99757.45;1678139;84;21081;-75
2021/10/13 06:47:06;;;;;;;39.20;24.87;;;;;;;10.74;79.88;99766.93;1669720;84;21152;-76
2021/10/13 06:49:32;;;;;;;48.78;26.93;;;;;;;10.79;79.85;99769.78;1679651;84;21620;-75
2021/10/13 06:51:59;;;;;;;44.10;23.55;;;;;;;10.88;78.71;99773.77;1676427;84;21192;-75
2021/10/13 06:54:25;;;;;;;42.67;23.95;;;;;;;10.89;79.52;99768.91;1673026;85;21212;-75
2021/10/13 06:56:52;;;;;;;42.75;25.08;;;;;;;10.96;77.93;99769.02;1657589;85;21065;-75
2021/10/13 06:59:18;;;;;;;42.62;25.57;;;;;;;10.94;78.43;99769.55;1693031;84;21658;-76
2021/10/13 07:01:44;;;;;;;48.90;24.87;;;;;;;10.95;78.80;99775.23;1667029;83;21109;-75
2021/10/13 07:04:11;;;;;;;46.18;27.62;;;;;;;10.96;77.66;99782.20;1689220;84;21140;-74
2021/10/13 07:06:37;;;;;;;43.08;26.73;;;;;;;10.97;77.55;99782.58;1670534;85;21212;-74
2021/10/13 07:09:05;;;;;;;37.55;22.62;;;;;;;10.97;78.98;99779.95;1673017;84;21541;-76
2021/10/13 07:11:34;;;;;;;38.73;21.82;;;;;;;11.06;79.75;99779.53;1664853;85;21560;-74
2021/10/13 07:14:03;;;;;;;37.70;24.20;;;;;;;11.17;78.43;99776.90;1662731;85;21136;-76
2021/10/13 07:16:31;;;;;;;45.48;25.10;;;;;;;11.18;76.72;99774.64;1669893;85;21053;-79
2021/10/13 07:18:59;;;;;;;38.67;23.65;;;;;;;11.10;76.06;99779.80;1680578;85;22233;-77
2021/10/13 07:21:25;;;;;;;43.30;23.62;;;;;;;11.03;77.03;99775.73;1679461;85;21548;-75
2021/10/13 07:23:52;;;;;;;40.75;26.02;;;;;;;11.09;77.44;99776.78;1668613;85;21024;-74
2021/10/13 07:26:19;;;;;;;41.20;22.82;;;;;;;11.15;76.04;99775.64;1660348;85;21080;-78
2021/10/13 07:28:45;;;;;;;40.88;22.67;;;;;;;11.04;76.71;99776.58;1674407;82;21071;-79
2021/10/13 07:31:12;;;;;;;35.92;21.80;;;;;;;11.08;77.94;99773.73;1683341;84;21090;-78
2021/10/13 07:33:39;;;;;;;39.27;23.35;;;;;;;11.20;78.44;99775.43;1723560;82;21053;-79
2021/10/13 07:36:06;;;;;;;38.85;23.90;;;;;;;11.37;77.31;99781.27;1722385;82;21359;-79
2021/10/13 07:38:34;;;;;;;39.18;24.23;;;;;;;11.37;75.46;99778.17;1719630;81;21023;-78
2021/10/13 07:41:01;;;;;;;39.70;23.70;;;;;;;11.43;77.30;99771.75;1719771;81;21041;-81
2021/10/13 07:43:29;;;;;;;45.40;25.30;;;;;;;11.52;75.85;99770.84;1728209;82;21848;-80
2021/10/13 07:45:57;;;;;;;44.48;24.27;;;;;;;11.53;73.87;99767.30;1728239;81;21089;-73
2021/10/13 07:48:26;;;;;;;40.03;24.02;;;;;;;11.47;75.47;99774.17;1710675;81;21125;-75
2021/10/13 07:50:53;;;;;;;41.68;23.80;;;;;;;11.54;75.74;99770.31;1719231;81;21037;-76
2021/10/13 07:53:19;;;;;;;36.77;22.00;;;;;;;11.63;74.76;99772.99;1718092;81;21028;-78
2021/10/13 07:55:46;;;;;;;39.67;23.30;;;;;;;11.46;72.80;99765.88;1725822;81;22109;-76
2021/10/13 07:58:13;;;;;;;40.90;22.17;;;;;;;11.26;73.18;99768.11;1711097;81;21048;-79
2021/10/13 08:00:39;;;;;;;39.33;22.50;;;;;;;11.07;75.13;99753.59;1716535;82;21125;-79
2021/10/13 08:03:05;;;;;;;34.30;21.07;;;;;;;11.30;77.04;99767.05;1726734;82;21046;-86
2021/10/13 08:05:33;;;;;;;38.90;22.45;;;;;;;11.50;77.43;99770.09;1734140;82;21029;-82
2021/10/13 08:07:59;;;;;;;42.53;23.52;;;;;;;11.60;73.68;99770.98;1729245;81;21123;-80
2021/10/13 08:10:25;;;;;;;42.40;24.27;;;;;;;11.50;73.12;99767.45;1722530;81;21017;-80
2021/10/13 08:12:52;;;;;;;40.05;22.62;;;;;;;11.40;73.67;99769.27;1699465;84;21532;-83
2021/10/13 08:15:19;;;;;;;35.45;19.50;;;;;;;11.30;74.04;99763.56;1728045;81;21120;-79
2021/10/13 08:17:47;;;;;;;31.37;19.70;;;;;;;11.22;74.61;99774.44;1727938;83;21053;-76
2021/10/13 08:20:14;;;;;;;39.98;22.93;;;;;;;11.11;74.11;99767.03;1738245;81;21079;-74
2021/10/13 08:22:41;;;;;;;34.38;21.68;;;;;;;10.98;74.42;99767.18;1753582;81;22232;-72
2021/10/13 08:25:09;;;;;;;38.90;22.52;;;;;;;10.89;74.63;99774.17;1753748;81;21027;-75
2021/10/13 08:27:36;;;;;;;41.85;24.60;;;;;;;10.80;75.52;99770.63;1751065;81;21051;-76
2021/10/13 08:30:04;;;;;;;36.63;22.20;;;;;;;10.71;76.29;99774.04;1732230;82;21064;-74
2021/10/13 08:32:32;;;;;;;34.15;21.68;;;;;;;10.61;76.24;99768.79;1718134;82;21266;-73
2021/10/13 08:35:00;;;;;;;40.08;23.30;;;;;;;10.55;76.47;99770.83;1721084;82;21058;-71
2021/10/13 08:37:27;;;;;;;39.75;22.82;;;;;;;10.54;75.81;99776.56;1718014;83;21140;-74
2021/10/13 08:39:53;;;;;;;36.95;22.40;;;;;;;10.55;77.03;99768.19;1717664;83;21569;-76
2021/10/13 08:42:26;;;;;;;34.03;20.30;;;;;;;10.56;74.93;99765.50;1718936;83;21069;-75
2021/10/13 08:44:54;;;;;;;38.08;22.85;;;;;;;10.49;77.85;99772.80;1722341;82;21851;-75
2021/10/13 08:47:20;;;;;;;41.25;23.20;;;;;;;10.52;76.23;99764.38;1718510;83;21065;-75
2021/10/13 08:49:47;;;;;;;42.80;23.85;;;;;;;10.53;76.53;99768.25;1708173;83;21045;-75
2021/10/13 08:52:13;;;;;;;35.25;21.23;;;;;;;10.52;76.64;99764.38;1701453;83;21048;-76
2021/10/13 08:54:41;;;;;;;35.83;21.23;;;;;;;10.47;77.15;99765.89;1716567;83;21125;-79
2021/10/13 08:57:22;;;;;;;42.05;24.72;;;;;;;10.45;76.26;99769.05;1714344;82;21125;-79
2021/10/13 08:59:53;;;;;;;37.30;22.25;;;;;;;10.44;76.10;99762.05;1702054;83;21097;-79
2021/10/13 09:02:40;;;;;;;;;;;;;;;10.41;79.89;99763.05;1722943;82;21136;-79
2021/10/13 09:05:12;;;;;;;43.02;21.52;;;;;;;10.40;79.17;99769.68;1721160;82;20165;-81
2021/10/13 09:07:53;;;;;;;44.18;24.18;;;;;;;10.37;78.12;99779.03;1714605;82;21136;-77
2021/10/13 09:10:34;;;;;;;43.02;20.75;;;;;;;10.36;78.94;99776.02;1736415;82;21512;-77
2021/10/13 09:13:15;;;;;;;32.67;19.73;;;;;;;10.35;79.43;99771.66;1738653;82;21049;-76
2021/10/13 09:15:50;;;;;;;44.67;23.75;;;;;;;10.29;78.46;99781.52;1720354;82;21043;-77
2021/10/13 09:18:20;;;;;;;39.00;22.73;;;;;;;10.29;78.69;99781.52;1722404;82;21110;-77
2021/10/13 09:20:50;;;;;;;35.58;22.22;;;;;;;10.26;78.83;99790.84;1708931;82;21074;-76
2021/10/13 09:23:33;;;;;;;34.67;21.27;;;;;;;10.22;77.93;99794.52;1721739;82;21650;-76
2021/10/13 09:26:08;;;;;;;33.18;20.27;;;;;;;10.23;78.52;99787.00;1721338;82;21723;-78
2021/10/13 09:28:38;;;;;;;36.17;19.62;;;;;;;10.28;80.96;99789.04;1706811;82;21134;-75
2021/10/13 09:31:18;;;;;;;39.88;23.47;;;;;;;10.27;78.75;99783.33;1723518;82;21599;-76
2021/10/13 09:34:01;;;;;;;41.10;21.93;;;;;;;10.30;78.58;99790.27;1723876;81;21591;-76
2021/10/13 09:36:44;;;;;;;33.40;19.50;;;;;;;10.27;80.59;99787.28;1723211;82;21182;-75
2021/10/13 09:39:15;;;;;;;47.00;22.60;;;;;;;10.26;78.21;99792.16;1711591;81;21635;-76
2021/10/13 09:42:08;;;;;;;40.73;22.50;;;;;;;10.18;77.55;99794.23;1719303;82;21044;-75
2021/10/13 09:44:45;;;;;;;31.12;19.77;;;;;;;10.13;78.86;99793.57;1742567;82;21112;-72
2021/10/13 09:47:13;;;;;;;37.78;21.57;;;;;;;10.08;78.57;99790.28;1697571;82;21105;-73
2021/10/13 09:49:43;;;;;;;33.18;20.57;;;;;;;10.07;79.33;99793.34;1718073;82;21148;-70
2021/10/13 09:52:15;;;;;;;31.82;19.95;;;;;;;10.03;79.18;99789.58;1731199;82;21041;-75
2021/10/13 09:54:45;;;;;;;34.20;21.15;;;;;;;10.03;78.89;99790.47;1716591;82;26636;-73
2021/10/13 09:57:23;;;;;;;35.20;18.27;;;;;;;10.12;79.72;99790.99;1720561;81;21039;-81
2021/10/13 10:00:13;;;;;;;34.65;20.23;;;;;;;10.14;81.86;99788.69;1722430;82;21037;-82
2021/10/13 10:02:52;;;;;;;32.38;19.45;;;;;;;10.20;79.17;99795.50;1729451;82;21523;-83
2021/10/13 10:05:30;;;;;;;36.23;22.17;;;;;;;10.18;79.05;99789.44;1728815;82;21500;-76
2021/10/13 10:08:06;;;;;;;35.83;21.07;;;;;;;10.16;78.86;99788.64;1691209;83;21069;-76
2021/10/13 10:10:35;;;;;;;45.23;22.62;;;;;;;10.10;77.55;99789.76;1728116;82;21571;-76
2021/10/13 10:13:10;;;;;;;31.52;19.48;;;;;;;10.08;79.00;99788.96;1718074;81;21061;-76
2021/10/13 10:15:48;;;;;;;37.42;21.40;;;;;;;10.10;79.59;99787.13;1694003;81;21532;-76
2021/10/13 10:18:33;;;;;;;34.40;19.87;;;;;;;10.12;77.86;99787.05;1716341;82;21111;-75
2021/10/13 10:21:23;;;;;;;35.90;19.73;;;;;;;10.08;77.29;99787.17;1647482;86;21033;-76
2021/10/13 10:23:52;;;;;;;34.95;20.20;;;;;;;10.02;77.21;99791.36;1656359;86;21034;-78
2021/10/13 10:26:30;;;;;;;31.12;17.52;;;;;;;10.01;77.34;99788.81;1652970;85;21556;-76
2021/10/13 10:29:12;;;;;;;33.42;19.20;;;;;;;10.02;78.66;99787.41;1668996;85;21184;-77
2021/10/13 10:31:40;;;;;;;;;;;;;;;10.03;78.54;99788.27;1683495;85;21122;-76
2021/10/13 10:34:18;;;;;;;36.25;21.20;;;;;;;10.04;77.80;99786.90;1624242;88;20180;-75
2021/10/13 10:36:51;;;;;;;30.90;17.23;;;;;;;10.05;79.36;99785.12;1632584;87;21047;-76
2021/10/13 10:39:19;;;;;;;33.80;21.00;;;;;;;10.07;79.75;99780.66;1641650;86;21044;-75
2021/10/13 10:41:52;;;;;;;31.23;19.05;;;;;;;10.14;79.59;99781.27;1685473;83;21802;-77
2021/10/13 10:44:41;;;;;;;33.95;20.77;;;;;;;10.16;80.18;99784.23;1729089;82;21034;-76
2021/10/13 10:47:17;;;;;;;35.13;19.42;;;;;;;10.18;77.82;99788.13;1695702;83;21050;-78
2021/10/13 10:49:49;;;;;;;37.15;20.37;;;;;;;10.18;77.92;99786.34;1725986;80;20959;-80
2021/10/13 10:52:24;;;;;;;38.78;21.97;;;;;;;10.15;77.88;99789.11;1716769;82;21066;-80
2021/10/13 10:55:01;;;;;;;36.08;22.15;;;;;;;10.16;77.10;99786.86;1721631;83;21625;-82
2021/10/13 10:57:39;;;;;;;32.80;19.20;;;;;;;10.16;77.09;99790.80;1720289;83;21399;-80
2021/10/13 11:00:09;;;;;;;32.40;20.77;;;;;;;10.16;78.04;99792.12;1693546;84;21031;-81
2021/10/13 11:02:36;;;;;;;34.70;20.70;;;;;;;10.17;77.52;99788.59;1693895;84;20979;-79
2021/10/13 11:05:10;;;;;;;31.75;19.15;;;;;;;10.17;77.07;99792.53;1718330;82;21030;-79
2021/10/13 11:07:40;;;;;;;30.80;20.82;;;;;;;10.16;77.07;99792.12;1735178;82;21485;-78
2021/10/13 11:10:11;;;;;;;36.20;21.55;;;;;;;10.17;76.94;99791.66;1691855;82;21061;-79
2021/10/13 11:12:59;;;;;;;40.65;20.17;;;;;;;10.19;76.91;99792.02;1722401;82;21068;-80
2021/10/13 11:15:30;;;;;;;38.98;20.25;;;;;;;10.22;76.60;99790.56;1721618;82;21050;-83
2021/10/13 11:18:15;;;;;;;36.75;21.85;;;;;;;10.23;76.37;99794.89;1721640;82;21037;-82
2021/10/13 11:20:45;;;;;;;35.30;22.40;;;;;;;10.25;76.77;99793.06;1728404;83;21150;-81
2021/10/13 11:23:12;;;;;;;43.58;22.45;;;;;;;10.25;76.44;99794.38;1729296;82;21070;-80
2021/10/13 11:25:40;;;;;;;31.33;19.80;;;;;;;10.27;76.45;99791.23;1729171;83;21129;-80
2021/10/13 11:28:18;;;;;;;44.27;20.00;;;;;;;10.32;78.60;99790.22;1730022;81;22132;-79
2021/10/13 11:30:49;;;;;;;42.03;20.35;;;;;;;10.36;77.56;99789.17;1731908;82;21046;-79
2021/10/13 11:33:18;;;;;;;35.90;20.65;;;;;;;10.41;77.22;99791.16;1725044;82;21237;-81
2021/10/13 11:35:48;;;;;;;35.38;21.42;;;;;;;10.42;77.95;99787.59;1703108;83;21098;-81